createdAt,value
2023-01-29T00:02:25.897Z,101181.25
2023-01-29T00:04:52.534Z,101176.34
2023-01-29T00:07:19.080Z,101182.13
2023-01-29T00:09:45.461Z,101173.56
2023-01-29T00:12:11.887Z,101177.94
2023-01-29T00:14:38.279Z,101174.72
2023-01-29T00:17:04.692Z,101169.56
2023-01-29T00:19:31.071Z,101165.91
2023-01-29T00:21:57.943Z,101159.84
2023-01-29T00:24:24.452Z,101169.84
2023-01-29T00:26:50.885Z,101159.97
2023-01-29T00:29:17.859Z,101162.53
2023-01-29T00:31:45.433Z,101163.31
2023-01-29T00:34:11.884Z,101159.13
2023-01-29T00:36:38.251Z,101154.03
2023-01-29T00:39:10.792Z,101147.13
2023-01-29T00:41:56.501Z,101145.41
2023-01-29T00:44:41.754Z,101147.47
2023-01-29T00:47:28.074Z,101142.25
2023-01-29T00:49:54.687Z,101144.16
2023-01-29T00:52:26.839Z,101137.06
2023-01-29T00:54:58.163Z,101137.78
2023-01-29T00:57:26.743Z,101135.22
2023-01-29T00:59:53.585Z,101139.47
2023-01-29T01:02:39.143Z,101143.94
2023-01-29T01:05:07.744Z,101148.41
2023-01-29T01:07:34.244Z,101158.72
2023-01-29T01:10:19.211Z,101160.19
2023-01-29T01:12:45.913Z,101156.81
2023-01-29T01:15:12.546Z,101164.78
2023-01-29T01:17:38.970Z,101156.63
2023-01-29T01:20:05.798Z,101156.44
2023-01-29T01:22:32.168Z,101161.16
2023-01-29T01:24:58.586Z,101162.88
2023-01-29T01:27:25.645Z,101150.72
2023-01-29T01:29:52.101Z,101145.63
2023-01-29T01:32:18.558Z,101142.25
2023-01-29T01:34:45.333Z,101137.06
2023-01-29T01:37:11.722Z,101132.06
2023-01-29T01:39:38.252Z,101145.88
2023-01-29T01:42:11.506Z,101135.06
2023-01-29T01:44:56.725Z,101136.50
2023-01-29T01:47:40.482Z,101123.97
2023-01-29T01:50:15.822Z,101127.47
2023-01-29T01:52:47.206Z,101124.91
2023-01-29T01:55:17.293Z,101123.22
2023-01-29T01:57:45.408Z,101129.91
2023-01-29T02:00:15.686Z,101135.69
2023-01-29T02:03:03.295Z,101136.34
2023-01-29T02:05:51.407Z,101133.22
2023-01-29T02:08:45.367Z,101124.06
2023-01-29T02:11:11.965Z,101121.47
2023-01-29T02:13:38.464Z,101116.97
2023-01-29T02:16:05.113Z,101117.50
2023-01-29T02:18:37.973Z,101117.22
2023-01-29T02:21:34.524Z,101116.72
2023-01-29T02:24:27.191Z,101113.34
2023-01-29T02:26:58.675Z,101107.81
2023-01-29T02:29:36.697Z,101110.69
2023-01-29T02:32:14.990Z,101117.16
2023-01-29T02:35:11.970Z,101121.88
2023-01-29T02:37:45.417Z,101108.56
2023-01-29T02:40:27.272Z,101107.97
2023-01-29T02:43:04.351Z,101105.47
2023-01-29T02:45:53.715Z,101103.97
2023-01-29T02:48:23.843Z,101119.66
2023-01-29T02:50:57.906Z,101120.44
2023-01-29T02:53:37.632Z,101124.47
2023-01-29T02:56:13.103Z,101119.56
2023-01-29T02:58:53.051Z,101122.25
2023-01-29T03:01:31.868Z,101120.78
2023-01-29T03:04:04.018Z,101121.69
2023-01-29T03:06:35.560Z,101120.88
2023-01-29T03:09:09.955Z,101128.78
2023-01-29T03:11:45.115Z,101119.97
2023-01-29T03:14:50.563Z,101119.22
2023-01-29T03:17:18.355Z,101121.78
2023-01-29T03:19:47.273Z,101123.78
2023-01-29T03:22:16.605Z,101122.06
2023-01-29T03:25:20.201Z,101114.94
2023-01-29T03:28:09.662Z,101113.94
2023-01-29T03:30:59.511Z,101101.06
2023-01-29T03:33:27.695Z,101108.38
2023-01-29T03:36:02.294Z,101121.97
2023-01-29T03:38:29.479Z,101122.03
2023-01-29T03:41:08.483Z,101117.69
2023-01-29T03:43:52.874Z,101121.81
2023-01-29T03:46:31.498Z,101119.19
2023-01-29T03:49:08.208Z,101125.97
2023-01-29T03:51:46.726Z,101116.56
2023-01-29T03:54:28.034Z,101110.56
2023-01-29T03:57:15.643Z,101103.66
2023-01-29T03:59:57.824Z,101115.75
2023-01-29T04:02:32.393Z,101122.19
2023-01-29T04:05:09.206Z,101121.16
2023-01-29T04:07:36.664Z,101115.34
2023-01-29T04:10:12.063Z,101112.53
2023-01-29T04:12:45.567Z,101105.03
2023-01-29T04:15:15.462Z,101093.84
2023-01-29T04:17:48.716Z,101096.59
2023-01-29T04:20:16.115Z,101087.94
2023-01-29T04:22:46.398Z,101081.47
2023-01-29T04:25:17.490Z,101074.88
2023-01-29T04:28:02.777Z,101073.13
2023-01-29T04:30:50.352Z,101066.44
2023-01-29T04:33:49.402Z,101067.94
2023-01-29T04:36:26.278Z,101060.41
2023-01-29T04:39:26.718Z,101067.94
2023-01-29T04:42:23.983Z,101056.16
2023-01-29T04:45:04.530Z,101057.03
2023-01-29T04:47:56.254Z,101052.66
2023-01-29T04:50:29.424Z,101046.69
2023-01-29T04:53:16.339Z,101045.19
2023-01-29T04:56:09.517Z,101033.94
2023-01-29T04:58:41.599Z,101035.28
2023-01-29T05:01:14.221Z,101023.25
2023-01-29T05:03:44.205Z,101019.81
2023-01-29T05:06:11.679Z,101014.00
2023-01-29T05:08:40.112Z,101009.78
2023-01-29T05:11:07.284Z,101015.44
2023-01-29T05:13:39.256Z,101008.16
2023-01-29T05:16:16.932Z,101002.78
2023-01-29T05:18:43.583Z,101009.88
2023-01-29T05:21:10.053Z,101010.06
2023-01-29T05:23:36.533Z,101011.84
2023-01-29T05:26:03.471Z,101018.25
2023-01-29T05:28:29.836Z,101006.38
2023-01-29T05:30:57.261Z,101004.78
2023-01-29T05:33:31.379Z,101004.16
2023-01-29T05:36:01.135Z,101003.06
2023-01-29T05:38:27.599Z,101004.50
2023-01-29T05:40:54.381Z,101002.09
2023-01-29T05:43:25.022Z,101007.31
2023-01-29T05:45:59.327Z,101004.78
2023-01-29T05:48:28.705Z,100996.38
2023-01-29T05:51:00.341Z,101010.22
2023-01-29T05:53:26.706Z,101006.94
2023-01-29T05:55:53.192Z,100994.16
2023-01-29T05:58:19.820Z,100993.25
2023-01-29T06:00:46.275Z,100999.75
2023-01-29T06:03:12.755Z,100998.16
2023-01-29T06:05:40.046Z,101006.84
2023-01-29T06:08:07.337Z,101010.50
2023-01-29T06:10:34.016Z,101017.16
2023-01-29T06:13:00.536Z,101015.31
2023-01-29T06:15:27.476Z,101006.00
2023-01-29T06:17:54.805Z,100997.44
2023-01-29T06:20:21.308Z,101014.84
2023-01-29T06:22:47.672Z,101016.53
2023-01-29T06:25:14.122Z,101024.41
2023-01-29T06:27:40.510Z,101046.78
2023-01-29T06:30:07.551Z,101040.06
2023-01-29T06:32:34.355Z,101052.38
2023-01-29T06:35:00.750Z,101062.31
2023-01-29T06:37:27.109Z,101059.16
2023-01-29T06:39:53.472Z,101049.72
2023-01-29T06:42:20.534Z,101047.94
2023-01-29T06:44:46.892Z,101056.44
2023-01-29T06:47:13.404Z,101055.91
2023-01-29T06:49:39.816Z,101044.72
2023-01-29T06:52:06.734Z,101053.47
2023-01-29T06:54:33.121Z,101067.16
2023-01-29T06:56:59.511Z,101078.44
2023-01-29T06:59:25.942Z,101085.06
2023-01-29T07:01:52.430Z,101092.78
2023-01-29T07:04:18.876Z,101102.16
2023-01-29T07:06:45.241Z,101096.84
2023-01-29T07:09:13.917Z,101098.84
2023-01-29T07:11:40.456Z,101099.56
2023-01-29T07:14:07.290Z,101102.81
2023-01-29T07:16:33.956Z,101103.47
2023-01-29T07:19:01.576Z,101108.59
2023-01-29T07:21:28.116Z,101111.28
2023-01-29T07:23:54.613Z,101115.47
2023-01-29T07:26:21.104Z,101119.09
2023-01-29T07:28:47.485Z,101115.47
2023-01-29T07:31:15.156Z,101115.47
2023-01-29T07:33:44.363Z,101101.56
2023-01-29T07:36:12.147Z,101094.56
2023-01-29T07:38:38.547Z,101094.13
2023-01-29T07:41:05.056Z,101090.59
2023-01-29T07:43:31.655Z,101093.22
2023-01-29T07:46:01.830Z,101085.56
2023-01-29T07:48:28.314Z,101093.19
2023-01-29T07:50:56.259Z,101088.56
2023-01-29T07:53:23.182Z,101092.06
2023-01-29T07:55:49.651Z,101077.84
2023-01-29T07:58:16.406Z,101085.09
2023-01-29T08:00:43.683Z,101083.38
2023-01-29T08:03:16.237Z,101073.34
2023-01-29T08:05:43.699Z,101057.50
2023-01-29T08:08:10.469Z,101054.16
2023-01-29T08:10:37.550Z,101038.38
2023-01-29T08:13:05.301Z,101037.41
2023-01-29T08:15:32.635Z,101036.25
2023-01-29T08:18:00.787Z,101036.75
2023-01-29T08:20:27.274Z,101038.34
2023-01-29T08:23:08.471Z,101032.06
2023-01-29T08:25:36.286Z,101021.03
2023-01-29T08:28:04.163Z,101025.97
2023-01-29T08:30:32.904Z,101025.66
2023-01-29T08:32:59.492Z,101029.81
2023-01-29T08:35:26.186Z,101026.47
2023-01-29T08:37:54.228Z,101020.34
2023-01-29T08:40:21.045Z,101026.31
2023-01-29T08:42:47.515Z,101022.69
2023-01-29T08:45:13.936Z,101022.91
2023-01-29T08:47:46.327Z,101028.63
2023-01-29T08:50:12.875Z,101038.44
2023-01-29T08:52:39.234Z,101037.50
2023-01-29T08:55:06.183Z,101042.31
2023-01-29T08:57:32.591Z,101051.47
2023-01-29T08:59:58.956Z,101056.78
2023-01-29T09:02:25.379Z,101056.38
2023-01-29T09:04:51.740Z,101047.03
2023-01-29T09:07:18.136Z,101036.16
2023-01-29T09:09:44.508Z,101031.66
2023-01-29T09:12:10.863Z,101025.00
2023-01-29T09:14:37.207Z,101021.72
2023-01-29T09:17:03.622Z,101013.81
2023-01-29T09:19:30.009Z,101015.88
2023-01-29T09:21:56.483Z,101025.88
2023-01-29T09:24:22.842Z,101027.03
2023-01-29T09:26:49.764Z,101029.31
2023-01-29T09:29:16.169Z,101014.59
2023-01-29T09:31:43.721Z,101002.44
2023-01-29T09:34:10.155Z,100999.97
2023-01-29T09:36:36.593Z,101004.69
2023-01-29T09:39:03.463Z,101015.09
2023-01-29T09:42:11.159Z,101017.16
2023-01-29T09:44:59.010Z,101024.19
2023-01-29T09:47:27.502Z,101014.38
2023-01-29T09:50:15.296Z,101009.16
2023-01-29T09:53:11.272Z,101008.25
2023-01-29T09:55:44.772Z,100992.19
2023-01-29T09:58:27.761Z,100993.63
2023-01-29T10:01:00.123Z,100978.97
2023-01-29T10:04:03.617Z,100964.66
2023-01-29T10:06:54.858Z,100960.84
2023-01-29T10:09:40.077Z,100961.13
2023-01-29T10:12:36.156Z,100958.31
2023-01-29T10:15:11.128Z,100961.13
2023-01-29T10:17:55.545Z,100969.34
2023-01-29T10:20:54.339Z,100969.00
2023-01-29T10:23:31.494Z,100968.94
2023-01-29T10:25:59.007Z,100974.44
2023-01-29T10:28:38.125Z,100970.78
2023-01-29T10:31:10.075Z,100966.06
2023-01-29T10:33:49.162Z,100966.75
2023-01-29T10:36:25.551Z,100970.38
2023-01-29T10:38:52.530Z,100973.13
2023-01-29T10:41:45.159Z,100978.53
2023-01-29T10:44:24.617Z,100974.94
2023-01-29T10:47:07.070Z,100970.63
2023-01-29T10:49:57.715Z,100970.44
2023-01-29T10:52:36.637Z,100964.31
2023-01-29T10:55:20.838Z,100958.97
2023-01-29T10:58:09.056Z,100945.75
2023-01-29T11:00:39.220Z,100925.50
2023-01-29T11:03:28.075Z,100920.75
2023-01-29T11:06:02.826Z,100910.06
2023-01-29T11:08:39.778Z,100906.38
2023-01-29T11:11:18.645Z,100900.47
2023-01-29T11:13:57.391Z,100898.22
2023-01-29T11:16:24.538Z,100897.03
2023-01-29T11:18:54.604Z,100879.69
2023-01-29T11:21:22.157Z,100875.16
2023-01-29T11:23:49.117Z,100871.63
2023-01-29T11:26:20.877Z,100875.81
2023-01-29T11:28:49.596Z,100868.53
2023-01-29T11:31:26.175Z,100863.88
2023-01-29T11:34:02.257Z,100861.84
2023-01-29T11:36:34.528Z,100852.31
2023-01-29T11:39:21.609Z,100849.53
2023-01-29T11:41:57.455Z,100846.28
2023-01-29T11:44:26.871Z,100849.53
2023-01-29T11:46:53.608Z,100844.63
2023-01-29T11:49:27.807Z,100860.41
2023-01-29T11:51:56.063Z,100863.69
2023-01-29T11:54:27.941Z,100862.75
2023-01-29T11:56:55.653Z,100854.22
2023-01-29T11:59:42.751Z,100850.69
2023-01-29T12:02:36.205Z,100856.47
2023-01-29T12:05:18.175Z,100843.06
2023-01-29T12:07:49.056Z,100827.81
2023-01-29T12:10:36.550Z,100828.22
2023-01-29T12:13:21.207Z,100821.47
2023-01-29T12:15:49.112Z,100823.22
2023-01-29T12:18:15.520Z,100822.00
2023-01-29T12:21:10.253Z,100811.13
2023-01-29T12:23:43.558Z,100804.50
2023-01-29T12:26:15.992Z,100788.09
2023-01-29T12:29:11.346Z,100791.63
2023-01-29T12:31:59.191Z,100784.69
2023-01-29T12:34:35.949Z,100768.28
2023-01-29T12:37:28.656Z,100764.66
2023-01-29T12:39:55.331Z,100780.78
2023-01-29T12:42:24.272Z,100778.91
2023-01-29T12:44:53.082Z,100767.56
2023-01-29T12:47:27.925Z,100774.03
2023-01-29T12:49:58.109Z,100768.34
2023-01-29T12:52:34.849Z,100769.66
2023-01-29T12:55:10.707Z,100767.41
2023-01-29T12:57:54.747Z,100767.41
2023-01-29T13:00:28.291Z,100759.72
2023-01-29T13:03:04.282Z,100750.84
2023-01-29T13:05:46.041Z,100755.44
2023-01-29T13:08:38.123Z,100744.91
2023-01-29T13:11:10.751Z,100760.03
2023-01-29T13:13:45.166Z,100745.75
2023-01-29T13:16:15.749Z,100739.34
2023-01-29T13:18:55.959Z,100729.44
2023-01-29T13:21:27.331Z,100740.38
2023-01-29T13:24:25.204Z,100730.44
2023-01-29T13:26:51.991Z,100726.22
2023-01-29T13:29:24.221Z,100725.28
2023-01-29T13:31:53.083Z,100722.00
2023-01-29T13:34:28.361Z,100719.19
2023-01-29T13:36:57.732Z,100729.59
2023-01-29T13:39:34.128Z,100712.06
2023-01-29T13:42:02.839Z,100723.16
2023-01-29T13:44:33.668Z,100726.22
2023-01-29T13:47:03.561Z,100725.28
2023-01-29T13:49:43.737Z,100724.84
2023-01-29T13:52:34.916Z,100731.59
2023-01-29T13:55:22.326Z,100742.94
2023-01-29T13:57:54.679Z,100735.91
2023-01-29T14:00:22.189Z,100740.69
2023-01-29T14:03:08.818Z,100727.16
2023-01-29T14:05:57.208Z,100719.78
2023-01-29T14:08:38.814Z,100722.84
2023-01-29T14:11:17.381Z,100713.78
2023-01-29T14:13:46.494Z,100715.47
2023-01-29T14:16:13.073Z,100715.47
2023-01-29T14:18:48.921Z,100723.63
2023-01-29T14:21:25.080Z,100722.78
2023-01-29T14:23:52.483Z,100723.00
2023-01-29T14:26:29.909Z,100716.72
2023-01-29T14:29:04.730Z,100706.94
2023-01-29T14:31:44.393Z,100699.28
2023-01-29T14:34:36.066Z,100699.16
2023-01-29T14:37:20.259Z,100695.97
2023-01-29T14:39:57.673Z,100696.94
2023-01-29T14:42:35.287Z,100701.72
2023-01-29T14:45:11.232Z,100709.19
2023-01-29T14:47:37.510Z,100705.75
2023-01-29T14:50:23.935Z,100708.88
2023-01-29T14:52:53.952Z,100708.72
2023-01-29T14:55:50.462Z,100718.56
2023-01-29T14:58:23.259Z,100720.22
2023-01-29T15:00:54.372Z,100713.44
2023-01-29T15:03:33.108Z,100718.72
2023-01-29T15:06:00.824Z,100722.56
2023-01-29T15:08:35.911Z,100722.88
2023-01-29T15:11:26.595Z,100711.97
2023-01-29T15:14:03.885Z,100721.31
2023-01-29T15:16:49.025Z,100721.00
2023-01-29T15:19:23.479Z,100714.28
2023-01-29T15:22:23.284Z,100706.34
2023-01-29T15:25:06.097Z,100698.28
2023-01-29T15:27:33.334Z,100696.28
2023-01-29T15:30:02.332Z,100684.13
2023-01-29T15:32:35.319Z,100687.16
2023-01-29T15:35:09.872Z,100690.13
2023-01-29T15:37:37.371Z,100685.69
2023-01-29T15:40:07.003Z,100681.38
2023-01-29T15:42:48.487Z,100685.59
2023-01-29T15:45:32.480Z,100684.06
2023-01-29T15:48:07.761Z,100684.00
2023-01-29T15:50:39.215Z,100674.78
2023-01-29T15:53:12.627Z,100676.25
2023-01-29T15:55:40.059Z,100676.94
2023-01-29T15:58:13.323Z,100673.31
2023-01-29T16:00:39.911Z,100666.41
2023-01-29T16:03:16.013Z,100670.78
2023-01-29T16:05:42.796Z,100665.41
2023-01-29T16:08:14.029Z,100668.03
2023-01-29T16:10:42.211Z,100667.78
2023-01-29T16:13:21.849Z,100654.97
2023-01-29T16:16:00.622Z,100657.13
2023-01-29T16:18:35.312Z,100655.72
2023-01-29T16:21:34.569Z,100664.72
2023-01-29T16:24:11.851Z,100648.97
2023-01-29T16:26:45.201Z,100651.22
2023-01-29T16:29:16.201Z,100641.38
2023-01-29T16:31:44.324Z,100640.22
2023-01-29T16:34:24.373Z,100638.91
2023-01-29T16:36:53.422Z,100636.16
2023-01-29T16:39:24.358Z,100633.94
2023-01-29T16:42:09.648Z,100628.41
2023-01-29T16:44:39.073Z,100631.94
2023-01-29T16:47:14.357Z,100628.25
2023-01-29T16:49:43.309Z,100630.38
2023-01-29T16:52:33.974Z,100628.78
2023-01-29T16:55:12.616Z,100623.97
2023-01-29T16:57:40.383Z,100626.56
2023-01-29T17:00:12.547Z,100617.81
2023-01-29T17:02:39.319Z,100611.66
2023-01-29T17:05:09.500Z,100613.91
2023-01-29T17:07:37.627Z,100615.03
2023-01-29T17:10:07.211Z,100612.91
2023-01-29T17:12:34.372Z,100610.28
2023-01-29T17:15:04.391Z,100606.84
2023-01-29T17:17:30.713Z,100609.03
2023-01-29T17:19:58.725Z,100607.38
2023-01-29T17:22:25.361Z,100611.66
2023-01-29T17:24:51.746Z,100620.41
2023-01-29T17:27:22.909Z,100609.81
2023-01-29T17:29:49.687Z,100609.00
2023-01-29T17:32:19.656Z,100600.06
2023-01-29T17:34:46.891Z,100611.34
2023-01-29T17:37:15.450Z,100609.66
2023-01-29T17:39:43.850Z,100611.34
2023-01-29T17:42:13.892Z,100595.25
2023-01-29T17:44:41.333Z,100598.59
2023-01-29T17:47:12.509Z,100587.28
2023-01-29T17:49:39.074Z,100599.53
2023-01-29T17:52:05.561Z,100603.25
2023-01-29T17:54:31.961Z,100596.88
2023-01-29T17:56:58.431Z,100582.38
2023-01-29T17:59:30.035Z,100586.88
2023-01-29T18:01:56.550Z,100577.16
2023-01-29T18:04:23.166Z,100582.38
2023-01-29T18:06:51.329Z,100583.56
2023-01-29T18:09:22.761Z,100583.41
2023-01-29T18:11:50.550Z,100587.91
2023-01-29T18:14:17.616Z,100562.53
2023-01-29T18:16:45.040Z,100558.25
2023-01-29T18:19:23.329Z,100560.41
2023-01-29T18:21:50.181Z,100560.56
2023-01-29T18:24:16.631Z,100574.06
2023-01-29T18:26:43.137Z,100567.53
2023-01-29T18:29:09.631Z,100562.22
2023-01-29T18:31:36.093Z,100571.63
2023-01-29T18:34:02.548Z,100558.88
2023-01-29T18:36:29.085Z,100560.97
2023-01-29T18:38:56.902Z,100555.66
2023-01-29T18:41:23.353Z,100555.81
2023-01-29T18:43:51.691Z,100562.69
2023-01-29T18:46:18.519Z,100560.09
2023-01-29T18:48:44.880Z,100561.19
2023-01-29T18:51:11.369Z,100554.81
2023-01-29T18:53:37.762Z,100551.81
2023-01-29T18:56:05.659Z,100541.97
2023-01-29T18:58:36.697Z,100536.75
2023-01-29T19:01:10.095Z,100538.78
2023-01-29T19:03:37.228Z,100528.34
2023-01-29T19:06:05.789Z,100522.97
2023-01-29T19:08:32.488Z,100518.75
2023-01-29T19:11:02.284Z,100518.50
2023-01-29T19:13:30.110Z,100512.84
2023-01-29T19:15:56.692Z,100515.16
2023-01-29T19:18:23.507Z,100505.09
2023-01-29T19:20:50.077Z,100495.81
2023-01-29T19:23:16.527Z,100499.03
2023-01-29T19:25:43.457Z,100488.44
2023-01-29T19:28:09.911Z,100492.31
2023-01-29T19:30:36.326Z,100492.00
2023-01-29T19:33:02.824Z,100483.69
2023-01-29T19:35:29.273Z,100480.00
2023-01-29T19:37:56.046Z,100486.78
2023-01-29T19:40:23.730Z,100481.56
2023-01-29T19:42:55.392Z,100491.06
2023-01-29T19:45:49.945Z,100485.38
2023-01-29T19:48:14.766Z,100488.75
2023-01-29T19:50:41.822Z,100480.47
2023-01-29T19:53:08.212Z,100480.41
2023-01-29T19:55:34.692Z,100472.44
2023-01-29T19:58:01.094Z,100477.72
2023-01-29T20:00:27.667Z,100481.47
2023-01-29T20:02:54.054Z,100476.19
2023-01-29T20:05:20.687Z,100487.66
2023-01-29T20:07:47.217Z,100484.47
2023-01-29T20:10:17.386Z,100484.78
2023-01-29T20:12:45.101Z,100474.03
2023-01-29T20:15:13.331Z,100498.56
2023-01-29T20:17:40.023Z,100487.28
2023-01-29T20:20:07.135Z,100497.34
2023-01-29T20:22:33.593Z,100486.06
2023-01-29T20:25:00.034Z,100493.13
2023-01-29T20:27:26.571Z,100490.41
2023-01-29T20:29:53.006Z,100494.41
2023-01-29T20:32:19.517Z,100480.00
2023-01-29T20:34:49.618Z,100471.63
2023-01-29T20:37:16.082Z,100476.53
2023-01-29T20:39:42.709Z,100479.66
2023-01-29T20:42:09.120Z,100467.53
2023-01-29T20:44:35.683Z,100465.19
2023-01-29T20:47:02.631Z,100461.59
2023-01-29T20:49:29.172Z,100461.88
2023-01-29T20:51:55.598Z,100464.63
2023-01-29T20:54:22.051Z,100462.38
2023-01-29T20:56:48.736Z,100451.59
2023-01-29T20:59:15.646Z,100447.28
2023-01-29T21:01:43.143Z,100450.13
2023-01-29T21:04:09.564Z,100447.59
2023-01-29T21:06:35.958Z,100444.25
2023-01-29T21:09:02.350Z,100432.81
2023-01-29T21:11:29.003Z,100432.81
2023-01-29T21:13:57.823Z,100431.41
2023-01-29T21:16:26.193Z,100415.94
2023-01-29T21:18:55.935Z,100404.53
2023-01-29T21:21:22.371Z,100404.72
2023-01-29T21:23:49.029Z,100395.81
2023-01-29T21:26:15.569Z,100388.91
2023-01-29T21:28:41.991Z,100376.03
2023-01-29T21:31:11.546Z,100384.44
2023-01-29T21:33:38.292Z,100389.91
2023-01-29T21:36:05.030Z,100392.66
2023-01-29T21:38:31.420Z,100374.44
2023-01-29T21:41:03.211Z,100374.13
2023-01-29T21:43:29.620Z,100378.34
2023-01-29T21:45:57.494Z,100374.34
2023-01-29T21:48:24.631Z,100365.66
2023-01-29T21:50:51.944Z,100358.19
2023-01-29T21:53:19.052Z,100350.75
2023-01-29T21:55:46.085Z,100342.03
2023-01-29T21:58:14.408Z,100329.69
2023-01-29T22:00:41.057Z,100320.75
2023-01-29T22:03:07.433Z,100321.28
2023-01-29T22:05:34.084Z,100305.63
2023-01-29T22:08:00.727Z,100303.59
2023-01-29T22:10:27.627Z,100288.56
2023-01-29T22:12:54.151Z,100292.16
2023-01-29T22:15:23.278Z,100282.75
2023-01-29T22:17:50.048Z,100282.13
2023-01-29T22:20:16.737Z,100281.22
2023-01-29T22:22:43.437Z,100263.59
2023-01-29T22:25:10.007Z,100249.31
2023-01-29T22:27:36.407Z,100252.03
2023-01-29T22:30:03.583Z,100246.28
2023-01-29T22:32:32.032Z,100235.41
2023-01-29T22:34:58.447Z,100225.47
2023-01-29T22:37:24.816Z,100211.19
2023-01-29T22:39:51.194Z,100207.97
2023-01-29T22:42:19.994Z,100211.19
2023-01-29T22:44:47.908Z,100200.09
2023-01-29T22:47:14.281Z,100200.59
2023-01-29T22:49:41.550Z,100185.31
2023-01-29T22:52:10.984Z,100176.06
2023-01-29T22:54:39.578Z,100178.25
2023-01-29T22:57:06.599Z,100159.88
2023-01-29T22:59:33.385Z,100158.16
2023-01-29T23:01:59.948Z,100162.47
2023-01-29T23:04:26.489Z,100160.19
2023-01-29T23:06:52.960Z,100156.38
2023-01-29T23:09:19.509Z,100166.75
2023-01-29T23:11:45.899Z,100160.19
2023-01-29T23:14:12.305Z,100157.66
2023-01-29T23:16:38.667Z,100140.75
2023-01-29T23:19:05.200Z,100137.00
2023-01-29T23:21:31.646Z,100136.25
2023-01-29T23:24:01.315Z,100144.22
2023-01-29T23:26:47.606Z,100162.78
2023-01-29T23:29:14.439Z,100149.59
2023-01-29T23:31:40.901Z,100151.13
2023-01-29T23:34:07.382Z,100142.97
2023-01-29T23:36:33.828Z,100129.19
2023-01-29T23:39:00.509Z,100116.91
2023-01-29T23:41:27.042Z,100122.13
2023-01-29T23:43:53.485Z,100115.09
2023-01-29T23:46:19.883Z,100102.78
2023-01-29T23:48:46.251Z,100083.81
2023-01-29T23:51:12.870Z,100066.50
2023-01-29T23:53:39.560Z,100059.59
2023-01-29T23:56:06.390Z,100065.06
2023-01-29T23:58:33.435Z,100073.06
